Time,TemperatureF,DewpointF,PressureIn,WindDirection,WindDirectionDegrees,WindSpeedMPH,WindSpeedGustMPH,Humidity,HourlyPrecipIn,Conditions,Clouds,dailyrainin,SoftwareType,DateUTC
2013-04-07 00:02:00,36.9,27.7,30.16,WSW,247,4.0,6.0,69,0.00,,,0.00,meteohub,2013-04-06 23:02:00,
2013-04-07 00:07:00,36.9,28.0,30.16,WNW,292,4.0,6.0,70,0.00,,,0.00,meteohub,2013-04-06 23:07:00,
2013-04-07 00:12:00,36.9,28.0,30.16,West,270,5.0,7.0,70,0.00,,,0.00,meteohub,2013-04-06 23:12:00,
2013-04-07 00:17:00,36.9,28.0,30.16,WSW,247,3.0,7.0,70,0.00,,,0.00,meteohub,2013-04-06 23:17:00,
2013-04-07 00:22:00,37.0,28.2,30.16,West,270,5.0,7.0,70,0.00,,,0.00,meteohub,2013-04-06 23:22:00,
2013-04-07 00:27:00,37.0,28.2,30.16,West,270,3.0,7.0,70,0.00,,,0.00,meteohub,2013-04-06 23:27:00,
2013-04-07 00:32:00,37.0,28.6,30.16,WSW,247,4.0,7.0,71,0.00,,,0.00,meteohub,2013-04-06 23:32:00,
2013-04-07 00:38:00,36.9,28.4,30.16,WSW,247,2.0,6.0,71,0.00,,,0.00,meteohub,2013-04-06 23:38:00,
2013-04-07 00:43:00,36.9,28.4,30.16,WSW,247,3.0,6.0,71,0.00,,,0.00,meteohub,2013-04-06 23:43:00,
2013-04-07 00:49:00,36.7,28.2,30.16,SSW,202,3.0,6.0,71,0.00,,,0.00,meteohub,2013-04-06 23:49:00,
2013-04-07 00:54:00,36.7,28.2,30.16,WSW,247,4.0,5.0,71,0.00,,,0.00,meteohub,2013-04-06 23:54:00,
2013-04-07 00:59:00,36.7,28.2,30.16,SW,225,3.0,4.0,71,0.00,,,0.00,meteohub,2013-04-06 23:59:00,
2013-04-07 01:05:00,36.5,28.0,30.16,SW,225,1.0,4.0,71,0.00,,,0.00,meteohub,2013-04-07 00:05:00,
2013-04-07 01:10:00,36.3,28.2,30.16,SSW,202,0.0,4.0,72,0.00,,,0.00,meteohub,2013-04-07 00:10:00,
2013-04-07 01:15:00,36.3,28.2,30.16,SW,225,3.0,4.0,72,0.00,,,0.00,meteohub,2013-04-07 00:15:00,
2013-04-07 01:21:00,36.3,28.2,30.16,WSW,247,0.0,4.0,72,0.00,,,0.00,meteohub,2013-04-07 00:21:00,
2013-04-07 01:26:00,36.1,28.0,30.16,NW,315,2.0,4.0,72,0.00,,,0.00,meteohub,2013-04-07 00:26:00,
2013-04-07 01:31:00,36.1,28.0,30.16,NNW,337,0.0,3.0,72,0.00,,,0.00,meteohub,2013-04-07 00:31:00,
2013-04-07 01:36:00,36.1,28.0,30.16,NE,45,3.0,3.0,72,0.00,,,0.00,meteohub,2013-04-07 00:36:00,
2013-04-07 01:42:00,36.1,28.0,30.16,ENE,67,0.0,3.0,72,0.00,,,0.00,meteohub,2013-04-07 00:42:00,
2013-04-07 01:47:00,36.1,28.0,30.16,ENE,67,0.0,3.0,72,0.00,,,0.00,meteohub,2013-04-07 00:47:00,
2013-04-07 01:53:00,36.1,28.0,30.16,East,90,0.0,3.0,72,0.00,,,0.00,meteohub,2013-04-07 00:53:00,
2013-04-07 01:58:00,36.1,28.4,30.16,East,90,0.0,3.0,73,0.00,,,0.00,meteohub,2013-04-07 00:58:00,
2013-04-07 02:04:00,36.1,28.4,30.16,East,90,0.0,3.0,73,0.00,,,0.00,meteohub,2013-04-07 01:04:00,
2013-04-07 02:09:00,36.1,28.4,30.16,ESE,112,0.0,2.0,73,0.00,,,0.00,meteohub,2013-04-07 01:09:00,
2013-04-07 02:15:00,36.1,28.4,30.16,East,90,0.0,0.0,73,0.00,,,0.00,meteohub,2013-04-07 01:15:00,
2013-04-07 02:20:00,36.1,28.4,30.16,East,90,0.0,0.0,73,0.00,,,0.00,meteohub,2013-04-07 01:20:00,
2013-04-07 02:25:00,36.1,28.4,30.16,SE,135,0.0,3.0,73,0.00,,,0.00,meteohub,2013-04-07 01:25:00,
2013-04-07 02:30:00,36.0,27.9,30.16,East,90,0.0,3.0,72,0.00,,,0.00,meteohub,2013-04-07 01:30:00,
2013-04-07 02:35:00,36.0,28.2,30.16,ESE,112,0.0,3.0,73,0.00,,,0.00,meteohub,2013-04-07 01:35:00,
2013-04-07 02:40:00,36.0,28.2,30.16,ENE,67,0.0,3.0,73,0.00,,,0.00,meteohub,2013-04-07 01:40:00,
2013-04-07 02:46:00,36.0,28.2,30.16,East,90,0.0,0.0,73,0.00,,,0.00,meteohub,2013-04-07 01:46:00,
2013-04-07 02:52:00,35.8,28.4,30.13,SSE,157,3.0,4.0,74,0.00,,,0.00,meteohub,2013-04-07 01:52:00,
2013-04-07 02:57:00,36.0,28.4,30.13,SE,135,3.0,6.0,74,0.00,,,0.00,meteohub,2013-04-07 01:57:00,
2013-04-07 03:02:00,36.1,28.9,30.13,East,90,4.0,6.0,75,0.00,,,0.00,meteohub,2013-04-07 02:02:00,
2013-04-07 03:07:00,36.1,29.3,30.13,North,0,0.0,6.0,76,0.00,,,0.00,meteohub,2013-04-07 02:07:00,
2013-04-07 03:12:00,35.8,28.6,30.13,ESE,112,3.0,6.0,75,0.00,,,0.00,meteohub,2013-04-07 02:12:00,
2013-04-07 03:18:00,35.8,28.6,30.13,East,90,2.0,5.0,75,0.00,,,0.00,meteohub,2013-04-07 02:18:00,
2013-04-07 03:23:00,35.8,28.9,30.13,South,180,0.0,4.0,76,0.00,,,0.00,meteohub,2013-04-07 02:23:00,
2013-04-07 03:29:00,35.6,28.8,30.13,SW,225,0.0,4.0,76,0.00,,,0.00,meteohub,2013-04-07 02:29:00,
2013-04-07 03:34:00,35.4,28.6,30.13,SSW,202,0.0,4.0,76,0.00,,,0.00,meteohub,2013-04-07 02:34:00,
2013-04-07 03:40:00,35.4,28.9,30.13,NNE,22,2.0,2.0,77,0.00,,,0.00,meteohub,2013-04-07 02:40:00,
2013-04-07 03:45:00,35.4,28.9,30.13,NNE,22,0.0,2.0,77,0.00,,,0.00,meteohub,2013-04-07 02:45:00,
2013-04-07 03:50:00,35.6,29.1,30.13,NNE,22,0.0,2.0,77,0.00,,,0.00,meteohub,2013-04-07 02:50:00,
2013-04-07 03:55:00,35.6,29.1,30.13,ENE,67,0.0,2.0,77,0.00,,,0.00,meteohub,2013-04-07 02:55:00,
2013-04-07 04:01:00,35.6,29.1,30.13,NE,45,0.0,0.0,77,0.00,,,0.00,meteohub,2013-04-07 03:01:00,
2013-04-07 04:06:00,35.8,29.7,30.13,ENE,67,0.0,0.0,78,0.00,,,0.00,meteohub,2013-04-07 03:06:00,
2013-04-07 04:11:00,35.8,29.7,30.13,ENE,67,0.0,0.0,78,0.00,,,0.00,meteohub,2013-04-07 03:11:00,
2013-04-07 04:17:00,35.8,29.7,30.13,NE,45,0.0,0.0,78,0.00,,,0.00,meteohub,2013-04-07 03:17:00,
2013-04-07 04:22:00,35.8,29.7,30.13,ENE,67,2.0,0.0,78,0.00,,,0.00,meteohub,2013-04-07 03:22:00,
2013-04-07 04:27:00,36.0,30.0,30.13,ENE,67,3.0,3.0,79,0.00,,,0.00,meteohub,2013-04-07 03:27:00,
2013-04-07 04:32:00,36.1,30.6,30.13,ENE,67,2.0,4.0,80,0.00,,,0.00,meteohub,2013-04-07 03:32:00,
2013-04-07 04:37:00,36.1,31.1,30.13,East,90,2.0,4.0,82,0.00,,,0.00,meteohub,2013-04-07 03:37:00,
2013-04-07 04:42:00,36.1,31.5,30.13,East,90,4.0,5.0,83,0.00,,,0.00,meteohub,2013-04-07 03:42:00,
2013-04-07 04:49:00,36.1,31.8,30.13,ENE,67,3.0,5.0,84,0.00,,,0.00,meteohub,2013-04-07 03:49:00,
2013-04-07 04:54:00,36.1,31.8,30.13,East,90,2.0,5.0,84,0.00,,,0.00,meteohub,2013-04-07 03:54:00,
2013-04-07 04:59:00,36.1,32.0,30.13,ESE,112,4.0,5.0,85,0.00,,,0.00,meteohub,2013-04-07 03:59:00,
2013-04-07 05:00:00,36.1,32.0,30.13,East,90,4.0,4.0,85,0.00,,,0.00,meteohub,2013-04-07 04:00:00,
2013-04-07 05:02:00,36.1,32.0,30.13,East,90,3.0,4.0,85,0.00,,,0.00,meteohub,2013-04-07 04:02:00,
2013-04-07 05:07:00,36.1,32.4,30.13,East,90,3.0,4.0,86,0.00,,,0.00,meteohub,2013-04-07 04:07:00,
2013-04-07 05:13:00,36.1,32.4,30.13,East,90,3.0,4.0,86,0.00,,,0.00,meteohub,2013-04-07 04:13:00,
2013-04-07 05:18:00,36.1,32.4,30.13,East,90,4.0,5.0,86,0.00,,,0.00,meteohub,2013-04-07 04:18:00,
2013-04-07 05:23:00,36.1,32.4,30.13,East,90,5.0,5.0,86,0.00,,,0.00,meteohub,2013-04-07 04:23:00,
2013-04-07 05:29:00,36.1,32.4,30.13,East,90,6.0,6.0,86,0.00,,,0.00,meteohub,2013-04-07 04:29:00,
2013-04-07 05:34:00,36.1,32.7,30.10,ESE,112,2.0,6.0,87,0.00,,,0.00,meteohub,2013-04-07 04:34:00,
2013-04-07 05:39:00,36.1,32.4,30.10,ESE,112,4.0,6.0,86,0.00,,,0.00,meteohub,2013-04-07 04:39:00,
2013-04-07 05:44:00,36.1,32.4,30.10,East,90,3.0,6.0,86,0.00,,,0.00,meteohub,2013-04-07 04:44:00,
2013-04-07 05:50:00,36.1,32.4,30.10,East,90,2.0,6.0,86,0.00,,,0.00,meteohub,2013-04-07 04:50:00,
2013-04-07 05:55:00,36.1,32.4,30.10,East,90,4.0,5.0,86,0.00,,,0.00,meteohub,2013-04-07 04:55:00,
2013-04-07 06:00:00,36.1,32.4,30.10,ESE,112,3.0,5.0,86,0.00,,,0.00,meteohub,2013-04-07 05:00:00,
2013-04-07 06:05:00,36.1,32.4,30.10,ESE,112,3.0,5.0,86,0.00,,,0.00,meteohub,2013-04-07 05:05:00,
2013-04-07 06:10:00,36.1,32.7,30.10,East,90,2.0,5.0,87,0.00,,,0.00,meteohub,2013-04-07 05:10:00,
2013-04-07 06:16:00,36.1,32.4,30.10,East,90,2.0,5.0,86,0.00,,,0.00,meteohub,2013-04-07 05:16:00,
2013-04-07 06:21:00,36.1,32.7,30.10,East,90,1.0,4.0,87,0.00,,,0.00,meteohub,2013-04-07 05:21:00,
2013-04-07 06:26:00,36.1,32.7,30.10,ESE,112,0.0,4.0,87,0.00,,,0.00,meteohub,2013-04-07 05:26:00,
2013-04-07 06:31:00,36.1,32.7,30.10,NE,45,0.0,4.0,87,0.00,,,0.00,meteohub,2013-04-07 05:31:00,
2013-04-07 06:37:00,36.1,32.7,30.10,NE,45,0.0,3.0,87,0.00,,,0.00,meteohub,2013-04-07 05:37:00,
2013-04-07 06:42:00,36.1,32.7,30.10,NNE,22,0.0,2.0,87,0.00,,,0.00,meteohub,2013-04-07 05:42:00,
2013-04-07 06:47:00,36.1,32.7,30.10,NNE,22,0.0,2.0,87,0.00,,,0.00,meteohub,2013-04-07 05:47:00,
2013-04-07 06:52:00,36.1,32.7,30.10,North,0,0.0,2.0,87,0.00,,,0.00,meteohub,2013-04-07 05:52:00,
2013-04-07 06:57:00,36.3,32.9,30.10,North,0,0.0,1.0,87,0.00,,,0.00,meteohub,2013-04-07 05:57:00,
2013-04-07 07:02:00,36.3,32.9,30.10,ENE,67,0.0,2.0,87,0.00,,,0.00,meteohub,2013-04-07 06:02:00,
2013-04-07 07:07:00,36.3,32.9,30.10,NNE,22,0.0,2.0,87,0.00,,,0.00,meteohub,2013-04-07 06:07:00,
2013-04-07 07:12:00,36.3,32.9,30.10,NE,45,1.0,2.0,87,0.00,,,0.00,meteohub,2013-04-07 06:12:00,
2013-04-07 07:17:00,36.3,32.9,30.10,NNE,22,0.0,2.0,87,0.00,,,0.00,meteohub,2013-04-07 06:17:00,
2013-04-07 07:22:00,36.3,32.9,30.10,ESE,112,0.0,2.0,87,0.00,,,0.00,meteohub,2013-04-07 06:22:00,
2013-04-07 07:27:00,36.3,32.9,30.10,NE,45,0.0,2.0,87,0.00,,,0.00,meteohub,2013-04-07 06:27:00,
2013-04-07 07:32:00,36.5,33.3,30.10,ESE,112,0.0,2.0,88,0.00,,,0.00,meteohub,2013-04-07 06:32:00,
2013-04-07 07:37:00,36.5,33.1,30.10,East,90,0.0,4.0,87,0.00,,,0.00,meteohub,2013-04-07 06:37:00,
2013-04-07 07:42:00,36.7,33.3,30.10,East,90,0.0,4.0,87,0.00,,,0.00,meteohub,2013-04-07 06:42:00,
2013-04-07 07:48:00,36.7,33.4,30.10,ENE,67,2.0,4.0,88,0.00,,,0.00,meteohub,2013-04-07 06:48:00,
2013-04-07 07:53:00,36.7,33.4,30.10,East,90,2.0,3.0,88,0.00,,,0.00,meteohub,2013-04-07 06:53:00,
2013-04-07 07:58:00,36.9,33.6,30.10,ESE,112,0.0,3.0,88,0.00,,,0.00,meteohub,2013-04-07 06:58:00,
2013-04-07 08:03:00,36.9,33.6,30.10,ESE,112,0.0,3.0,88,0.00,,,0.00,meteohub,2013-04-07 07:03:00,
2013-04-07 08:08:00,36.9,33.6,30.10,East,90,0.0,2.0,88,0.00,,,0.00,meteohub,2013-04-07 07:08:00,
2013-04-07 08:14:00,36.9,33.6,30.10,NE,45,0.0,0.0,88,0.00,,,0.00,meteohub,2013-04-07 07:14:00,
2013-04-07 08:19:00,37.0,33.8,30.10,ENE,67,0.0,1.0,88,0.00,,,0.00,meteohub,2013-04-07 07:19:00,
2013-04-07 08:24:00,37.0,33.8,30.10,ENE,67,0.0,2.0,88,0.00,,,0.00,meteohub,2013-04-07 07:24:00,
2013-04-07 08:29:00,37.0,33.8,30.10,NE,45,0.0,2.0,88,0.00,,,0.00,meteohub,2013-04-07 07:29:00,
2013-04-07 08:35:00,37.2,34.0,30.10,North,0,0.0,2.0,88,0.00,,,0.00,meteohub,2013-04-07 07:35:00,
2013-04-07 08:40:00,37.2,34.0,30.10,NE,45,2.0,2.0,88,0.00,,,0.00,meteohub,2013-04-07 07:40:00,
2013-04-07 08:45:00,37.4,34.2,30.10,ENE,67,2.0,4.0,88,0.00,,,0.00,meteohub,2013-04-07 07:45:00,
2013-04-07 08:51:00,37.4,34.2,30.10,NNE,22,1.0,4.0,88,0.00,,,0.00,meteohub,2013-04-07 07:51:00,
2013-04-07 08:56:00,37.4,34.2,30.10,NE,45,5.0,5.0,88,0.00,,,0.00,meteohub,2013-04-07 07:56:00,
2013-04-07 09:01:00,37.4,34.2,30.10,ENE,67,5.0,5.0,88,0.00,,,0.00,meteohub,2013-04-07 08:01:00,
2013-04-07 09:06:00,37.4,34.2,30.13,East,90,4.0,5.0,88,0.00,,,0.00,meteohub,2013-04-07 08:06:00,
2013-04-07 09:12:00,37.6,34.3,30.13,ESE,112,5.0,6.0,88,0.00,,,0.00,meteohub,2013-04-07 08:12:00,
2013-04-07 09:17:00,37.6,34.7,30.13,ENE,67,6.0,6.0,89,0.00,,,0.00,meteohub,2013-04-07 08:17:00,
2013-04-07 09:22:00,37.6,34.7,30.10,East,90,7.0,8.0,89,0.00,,,0.00,meteohub,2013-04-07 08:22:00,
2013-04-07 09:27:00,37.6,34.7,30.10,ENE,67,5.0,8.0,89,0.00,,,0.00,meteohub,2013-04-07 08:27:00,
2013-04-07 09:32:00,37.6,34.7,30.10,East,90,3.0,8.0,89,0.00,,,0.00,meteohub,2013-04-07 08:32:00,
2013-04-07 09:37:00,37.6,34.9,30.13,ENE,67,4.0,8.0,90,0.00,,,0.00,meteohub,2013-04-07 08:37:00,
2013-04-07 09:42:00,37.6,35.2,30.13,NE,45,6.0,8.0,91,0.00,,,0.00,meteohub,2013-04-07 08:42:00,
2013-04-07 09:48:00,37.6,35.2,30.13,East,90,6.0,9.0,91,0.00,,,0.00,meteohub,2013-04-07 08:48:00,
2013-04-07 09:53:00,37.6,35.2,30.13,East,90,5.0,9.0,91,0.00,,,0.00,meteohub,2013-04-07 08:53:00,
2013-04-07 09:58:00,37.8,35.6,30.13,ENE,67,6.0,10.0,92,0.00,,,0.00,meteohub,2013-04-07 08:58:00,
2013-04-07 10:04:00,37.6,35.4,30.13,East,90,9.0,10.0,92,0.00,,,0.00,meteohub,2013-04-07 09:04:00,
2013-04-07 10:09:00,37.6,35.4,30.13,ENE,67,7.0,12.0,92,0.00,,,0.00,meteohub,2013-04-07 09:09:00,
2013-04-07 10:15:00,37.6,35.4,30.13,East,90,8.0,12.0,92,0.00,,,0.00,meteohub,2013-04-07 09:15:00,
2013-04-07 10:20:00,37.6,35.4,30.10,East,90,6.0,10.0,92,0.00,,,0.00,meteohub,2013-04-07 09:20:00,
2013-04-07 10:25:00,37.6,35.4,30.10,East,90,4.0,10.0,92,0.00,,,0.00,meteohub,2013-04-07 09:25:00,
2013-04-07 10:31:00,37.4,35.2,30.10,East,90,6.0,10.0,92,0.00,,,0.00,meteohub,2013-04-07 09:31:00,
2013-04-07 10:37:00,37.2,35.1,30.13,SE,135,8.0,10.0,92,0.00,,,0.00,meteohub,2013-04-07 09:37:00,
2013-04-07 10:42:00,37.2,35.1,30.13,ENE,67,6.0,10.0,92,0.00,,,0.00,meteohub,2013-04-07 09:42:00,
2013-04-07 10:47:00,37.2,35.1,30.13,East,90,5.0,10.0,92,0.00,,,0.00,meteohub,2013-04-07 09:47:00,
2013-04-07 10:52:00,37.2,35.1,30.13,NNE,22,8.0,10.0,92,0.00,,,0.00,meteohub,2013-04-07 09:52:00,
2013-04-07 10:57:00,37.2,35.1,30.13,East,90,8.0,11.0,92,0.00,,,0.00,meteohub,2013-04-07 09:57:00,
2013-04-07 11:03:00,37.2,35.1,30.10,ENE,67,10.0,11.0,92,0.00,,,0.00,meteohub,2013-04-07 10:03:00,
2013-04-07 11:08:00,37.2,35.1,30.10,ENE,67,8.0,11.0,92,0.00,,,0.00,meteohub,2013-04-07 10:08:00,
2013-04-07 11:13:00,37.2,35.1,30.10,ENE,67,6.0,11.0,92,0.00,,,0.00,meteohub,2013-04-07 10:13:00,
2013-04-07 11:18:00,37.2,35.1,30.10,East,90,8.0,11.0,92,0.00,,,0.00,meteohub,2013-04-07 10:18:00,
2013-04-07 11:24:00,37.2,35.1,30.10,ENE,67,8.0,11.0,92,0.00,,,0.00,meteohub,2013-04-07 10:24:00,
2013-04-07 11:29:00,37.0,34.9,30.10,East,90,7.0,11.0,92,0.00,,,0.00,meteohub,2013-04-07 10:29:00,
2013-04-07 11:34:00,37.0,34.9,30.10,ENE,67,8.0,11.0,92,0.00,,,0.00,meteohub,2013-04-07 10:34:00,
2013-04-07 11:40:00,37.0,34.9,30.10,East,90,4.0,11.0,92,0.00,,,0.00,meteohub,2013-04-07 10:40:00,
2013-04-07 11:45:00,37.0,34.9,30.10,East,90,5.0,11.0,92,0.00,,,0.00,meteohub,2013-04-07 10:45:00,
2013-04-07 11:50:00,37.0,34.9,30.10,East,90,11.0,11.0,92,0.00,,,0.00,meteohub,2013-04-07 10:50:00,
2013-04-07 11:55:00,37.0,34.9,30.10,East,90,9.0,11.0,92,0.00,,,0.00,meteohub,2013-04-07 10:55:00,
2013-04-07 12:00:00,37.0,34.9,30.10,East,90,7.0,11.0,92,0.00,,,0.00,meteohub,2013-04-07 11:00:00,
2013-04-07 12:05:00,37.0,34.9,30.10,ENE,67,9.0,11.0,92,0.00,,,0.00,meteohub,2013-04-07 11:05:00,
2013-04-07 12:10:00,37.2,35.1,30.10,ENE,67,6.0,11.0,92,0.00,,,0.00,meteohub,2013-04-07 11:10:00,
2013-04-07 12:16:00,37.2,35.1,30.10,East,90,8.0,11.0,92,0.00,,,0.00,meteohub,2013-04-07 11:16:00,
2013-04-07 12:21:00,37.2,35.1,30.10,ENE,67,6.0,12.0,92,0.00,,,0.00,meteohub,2013-04-07 11:21:00,
2013-04-07 12:26:00,37.2,34.9,30.10,East,90,6.0,13.0,91,0.00,,,0.00,meteohub,2013-04-07 11:26:00,
2013-04-07 12:32:00,37.4,35.1,30.10,East,90,7.0,13.0,91,0.00,,,0.00,meteohub,2013-04-07 11:32:00,
2013-04-07 12:37:00,37.4,35.1,30.10,East,90,12.0,13.0,91,0.00,,,0.00,meteohub,2013-04-07 11:37:00,
2013-04-07 12:42:00,37.4,35.1,30.10,ESE,112,7.0,12.0,91,0.00,,,0.00,meteohub,2013-04-07 11:42:00,
2013-04-07 12:47:00,37.4,35.1,30.10,East,90,8.0,12.0,91,0.00,,,0.00,meteohub,2013-04-07 11:47:00,
2013-04-07 12:52:00,37.4,35.1,30.10,East,90,12.0,12.0,91,0.00,,,0.00,meteohub,2013-04-07 11:52:00,
2013-04-07 12:57:00,37.4,34.7,30.10,East,90,11.0,12.0,90,0.00,,,0.00,meteohub,2013-04-07 11:57:00,
2013-04-07 13:02:00,37.2,34.9,30.10,East,90,5.0,13.0,91,0.00,,,0.00,meteohub,2013-04-07 12:02:00,
2013-04-07 13:08:00,37.2,34.9,30.10,East,90,6.0,13.0,91,0.00,,,0.00,meteohub,2013-04-07 12:08:00,
2013-04-07 13:13:00,37.2,34.9,30.10,ESE,112,5.0,13.0,91,0.00,,,0.00,meteohub,2013-04-07 12:13:00,
2013-04-07 13:18:00,37.0,34.7,30.10,ESE,112,6.0,13.0,91,0.00,,,0.00,meteohub,2013-04-07 12:18:00,
2013-04-07 13:24:00,37.2,34.9,30.10,ENE,67,5.0,13.0,91,0.00,,,0.00,meteohub,2013-04-07 12:24:00,
2013-04-07 13:30:00,37.2,34.9,30.10,East,90,9.0,11.0,91,0.00,,,0.00,meteohub,2013-04-07 12:30:00,
2013-04-07 13:35:00,37.4,35.1,30.10,ENE,67,6.0,11.0,91,0.00,,,0.00,meteohub,2013-04-07 12:35:00,
2013-04-07 13:40:00,37.4,35.1,30.10,East,90,10.0,11.0,91,0.00,,,0.00,meteohub,2013-04-07 12:40:00,
2013-04-07 13:45:00,37.4,35.1,30.10,ENE,67,8.0,12.0,91,0.00,,,0.00,meteohub,2013-04-07 12:45:00,
2013-04-07 13:50:00,37.4,34.7,30.10,East,90,8.0,13.0,90,0.00,,,0.00,meteohub,2013-04-07 12:50:00,
2013-04-07 13:56:00,37.4,35.1,30.10,East,90,8.0,13.0,91,0.00,,,0.00,meteohub,2013-04-07 12:56:00,
2013-04-07 14:03:00,37.4,35.1,30.10,ENE,67,9.0,13.0,91,0.00,,,0.00,meteohub,2013-04-07 13:03:00,
2013-04-07 14:08:00,37.4,35.1,30.07,East,90,8.0,12.0,91,0.00,,,0.00,meteohub,2013-04-07 13:08:00,
2013-04-07 14:14:00,37.4,35.1,30.07,NE,45,6.0,13.0,91,0.00,,,0.00,meteohub,2013-04-07 13:14:00,
2013-04-07 14:19:00,37.4,34.7,30.07,East,90,6.0,13.0,90,0.00,,,0.00,meteohub,2013-04-07 13:19:00,
2013-04-07 14:24:00,37.4,35.1,30.07,East,90,8.0,13.0,91,0.00,,,0.00,meteohub,2013-04-07 13:24:00,
2013-04-07 14:30:00,37.4,34.7,30.07,East,90,6.0,13.0,90,0.00,,,0.00,meteohub,2013-04-07 13:30:00,
2013-04-07 14:35:00,37.4,34.7,30.07,East,90,11.0,14.0,90,0.00,,,0.00,meteohub,2013-04-07 13:35:00,
2013-04-07 14:40:00,37.6,34.9,30.07,ESE,112,6.0,14.0,90,0.00,,,0.00,meteohub,2013-04-07 13:40:00,
2013-04-07 14:45:00,37.6,34.9,30.07,East,90,8.0,14.0,90,0.00,,,0.00,meteohub,2013-04-07 13:45:00,
2013-04-07 14:51:00,37.6,34.7,30.07,ENE,67,8.0,13.0,89,0.00,,,0.00,meteohub,2013-04-07 13:51:00,
2013-04-07 14:56:00,37.6,34.7,30.07,East,90,9.0,13.0,89,0.00,,,0.00,meteohub,2013-04-07 13:56:00,
2013-04-07 15:02:00,37.6,34.7,30.07,NE,45,5.0,13.0,89,0.00,,,0.00,meteohub,2013-04-07 14:02:00,
2013-04-07 15:07:00,37.6,34.7,30.07,East,90,10.0,13.0,89,0.00,,,0.00,meteohub,2013-04-07 14:07:00,
2013-04-07 15:12:00,37.6,34.7,30.07,ESE,112,10.0,13.0,89,0.00,,,0.00,meteohub,2013-04-07 14:12:00,
2013-04-07 15:17:00,37.6,34.7,30.07,East,90,6.0,13.0,89,0.00,,,0.00,meteohub,2013-04-07 14:17:00,
2013-04-07 15:22:00,37.4,34.5,30.07,East,90,6.0,13.0,89,0.00,,,0.00,meteohub,2013-04-07 14:22:00,
2013-04-07 15:27:00,37.4,34.5,30.07,East,90,9.0,13.0,89,0.00,,,0.00,meteohub,2013-04-07 14:27:00,
2013-04-07 15:32:00,37.4,34.5,30.07,ENE,67,12.0,13.0,89,0.00,,,0.00,meteohub,2013-04-07 14:32:00,
2013-04-07 15:37:00,37.4,34.5,30.07,ESE,112,8.0,14.0,89,0.00,,,0.00,meteohub,2013-04-07 14:37:00,
2013-04-07 15:42:00,37.4,34.5,30.07,East,90,11.0,14.0,89,0.00,,,0.00,meteohub,2013-04-07 14:42:00,
2013-04-07 15:47:00,37.4,34.5,30.07,East,90,12.0,14.0,89,0.00,,,0.00,meteohub,2013-04-07 14:47:00,
2013-04-07 15:52:00,37.4,34.5,30.04,ENE,67,7.0,13.0,89,0.00,,,0.00,meteohub,2013-04-07 14:52:00,
2013-04-07 15:58:00,37.4,34.5,30.04,East,90,10.0,13.0,89,0.00,,,0.00,meteohub,2013-04-07 14:58:00,
2013-04-07 16:03:00,37.4,34.5,30.04,ENE,67,6.0,13.0,89,0.00,,,0.00,meteohub,2013-04-07 15:03:00,
2013-04-07 16:08:00,37.6,34.7,30.04,ESE,112,7.0,13.0,89,0.00,,,0.00,meteohub,2013-04-07 15:08:00,
2013-04-07 16:13:00,37.4,34.5,30.04,ESE,112,8.0,13.0,89,0.00,,,0.00,meteohub,2013-04-07 15:13:00,
2013-04-07 16:18:00,37.4,34.2,30.04,East,90,11.0,13.0,88,0.00,,,0.00,meteohub,2013-04-07 15:18:00,
2013-04-07 16:23:00,37.2,34.0,30.04,ENE,67,9.0,13.0,88,0.00,,,0.00,meteohub,2013-04-07 15:23:00,
2013-04-07 16:29:00,37.2,34.0,30.04,East,90,11.0,15.0,88,0.00,,,0.00,meteohub,2013-04-07 15:29:00,
2013-04-07 16:34:00,37.0,33.8,30.04,ENE,67,8.0,15.0,88,0.00,,,0.00,meteohub,2013-04-07 15:34:00,
2013-04-07 16:39:00,37.0,33.6,30.04,ENE,67,10.0,15.0,87,0.00,,,0.00,meteohub,2013-04-07 15:39:00,
2013-04-07 16:45:00,36.9,33.4,30.04,NE,45,11.0,15.0,87,0.00,,,0.00,meteohub,2013-04-07 15:45:00,
2013-04-07 16:50:00,36.9,33.4,30.04,ENE,67,13.0,15.0,87,0.00,,,0.00,meteohub,2013-04-07 15:50:00,
2013-04-07 16:56:00,36.9,33.4,30.04,ENE,67,5.0,15.0,87,0.00,,,0.00,meteohub,2013-04-07 15:56:00,
2013-04-07 17:01:00,36.9,33.4,30.04,NE,45,6.0,15.0,87,0.00,,,0.00,meteohub,2013-04-07 16:01:00,
2013-04-07 17:06:00,36.9,33.6,30.04,ENE,67,13.0,15.0,88,0.00,,,0.00,meteohub,2013-04-07 16:06:00,
2013-04-07 17:11:00,36.7,33.3,30.04,NE,45,10.0,13.0,87,0.00,,,0.00,meteohub,2013-04-07 16:11:00,
2013-04-07 17:17:00,36.7,33.4,30.04,East,90,5.0,13.0,88,0.00,,,0.00,meteohub,2013-04-07 16:17:00,
2013-04-07 17:22:00,36.5,33.3,30.04,SSE,157,13.0,13.0,88,0.00,,,0.00,meteohub,2013-04-07 16:22:00,
2013-04-07 17:27:00,36.5,33.3,30.04,East,90,11.0,13.0,88,0.00,,,0.00,meteohub,2013-04-07 16:27:00,
2013-04-07 17:32:00,36.3,33.1,30.04,East,90,7.0,13.0,88,0.00,,,0.00,meteohub,2013-04-07 16:32:00,
2013-04-07 17:37:00,36.3,33.4,30.04,ENE,67,5.0,13.0,89,0.00,,,0.00,meteohub,2013-04-07 16:37:00,
2013-04-07 17:43:00,36.3,33.4,30.04,ENE,67,6.0,11.0,89,0.00,,,0.00,meteohub,2013-04-07 16:43:00,
2013-04-07 17:48:00,36.1,33.3,30.04,ENE,67,8.0,12.0,89,0.00,,,0.00,meteohub,2013-04-07 16:48:00,
2013-04-07 17:53:00,36.1,33.3,30.04,ENE,67,7.0,12.0,89,0.00,,,0.00,meteohub,2013-04-07 16:53:00,
2013-04-07 17:58:00,36.1,33.3,30.04,East,90,6.0,12.0,89,0.00,,,0.00,meteohub,2013-04-07 16:58:00,
2013-04-07 18:03:00,36.1,33.4,30.04,NE,45,6.0,11.0,90,0.00,,,0.00,meteohub,2013-04-07 17:03:00,
2013-04-07 18:12:00,36.0,33.3,30.04,ENE,67,6.0,15.0,90,0.00,,,0.00,meteohub,2013-04-07 17:12:00,
2013-04-07 18:17:00,36.0,33.3,30.04,East,90,7.0,15.0,90,0.00,,,0.00,meteohub,2013-04-07 17:17:00,
2013-04-07 18:22:00,36.0,33.3,30.04,East,90,9.0,15.0,90,0.00,,,0.00,meteohub,2013-04-07 17:22:00,
2013-04-07 18:27:00,35.8,33.1,30.04,ENE,67,10.0,13.0,90,0.00,,,0.00,meteohub,2013-04-07 17:27:00,
2013-04-07 18:33:00,35.8,33.4,30.01,East,90,11.0,14.0,91,0.00,,,0.00,meteohub,2013-04-07 17:33:00,
2013-04-07 18:38:00,35.8,33.4,30.01,ENE,67,7.0,14.0,91,0.00,,,0.00,meteohub,2013-04-07 17:38:00,
2013-04-07 18:43:00,35.8,33.4,30.01,ENE,67,9.0,14.0,91,0.00,,,0.00,meteohub,2013-04-07 17:43:00,
2013-04-07 18:48:00,35.8,33.4,30.01,East,90,11.0,13.0,91,0.00,,,0.00,meteohub,2013-04-07 17:48:00,
2013-04-07 18:53:00,35.8,33.6,30.01,ENE,67,8.0,13.0,92,0.00,,,0.00,meteohub,2013-04-07 17:53:00,
2013-04-07 18:59:00,35.8,33.6,30.01,ENE,67,9.0,13.0,92,0.00,,,0.00,meteohub,2013-04-07 17:59:00,
2013-04-07 19:04:00,35.8,33.6,30.04,ENE,67,11.0,12.0,92,0.00,,,0.00,meteohub,2013-04-07 18:04:00,
2013-04-07 19:09:00,35.8,33.6,30.04,ENE,67,9.0,13.0,92,0.00,,,0.00,meteohub,2013-04-07 18:09:00,
2013-04-07 19:14:00,35.8,33.6,30.04,East,90,8.0,13.0,92,0.00,,,0.00,meteohub,2013-04-07 18:14:00,
2013-04-07 19:20:00,35.6,33.4,30.04,ENE,67,6.0,13.0,92,0.00,,,0.00,meteohub,2013-04-07 18:20:00,
2013-04-07 19:25:00,35.6,33.4,30.04,East,90,11.0,11.0,92,0.00,,,0.00,meteohub,2013-04-07 18:25:00,
2013-04-07 19:30:00,35.6,33.4,30.04,NE,45,9.0,12.0,92,0.00,,,0.00,meteohub,2013-04-07 18:30:00,
2013-04-07 19:35:00,35.6,33.4,30.01,East,90,9.0,12.0,92,0.00,,,0.00,meteohub,2013-04-07 18:35:00,
2013-04-07 19:40:00,35.6,33.4,30.01,East,90,9.0,12.0,92,0.00,,,0.00,meteohub,2013-04-07 18:40:00,
2013-04-07 19:45:00,35.6,33.4,30.01,East,90,8.0,11.0,92,0.00,,,0.00,meteohub,2013-04-07 18:45:00,
2013-04-07 19:50:00,35.6,33.4,30.01,ENE,67,11.0,11.0,92,0.00,,,0.00,meteohub,2013-04-07 18:50:00,
2013-04-07 19:55:00,35.6,33.4,30.01,NE,45,10.0,12.0,92,0.00,,,0.00,meteohub,2013-04-07 18:55:00,
2013-04-07 20:01:00,35.4,33.6,30.01,NE,45,11.0,13.0,93,0.00,,,0.00,meteohub,2013-04-07 19:01:00,
2013-04-07 20:06:00,35.4,33.6,30.01,ENE,67,8.0,13.0,93,0.00,,,0.00,meteohub,2013-04-07 19:06:00,
2013-04-07 20:11:00,35.4,33.6,30.01,East,90,6.0,13.0,93,0.00,,,0.00,meteohub,2013-04-07 19:11:00,
2013-04-07 20:17:00,35.2,33.4,30.01,East,90,10.0,13.0,93,0.00,,,0.00,meteohub,2013-04-07 19:17:00,
2013-04-07 20:22:00,35.2,33.6,30.01,ENE,67,8.0,12.0,94,0.00,,,0.00,meteohub,2013-04-07 19:22:00,
2013-04-07 20:27:00,35.2,33.6,30.01,East,90,10.0,12.0,94,0.00,,,0.00,meteohub,2013-04-07 19:27:00,
2013-04-07 20:32:00,35.1,33.4,30.01,East,90,7.0,12.0,94,0.00,,,0.00,meteohub,2013-04-07 19:32:00,
2013-04-07 20:37:00,35.1,33.4,30.01,ENE,67,5.0,12.0,94,0.00,,,0.00,meteohub,2013-04-07 19:37:00,
2013-04-07 20:42:00,35.1,33.8,30.01,ENE,67,8.0,12.0,95,0.00,,,0.00,meteohub,2013-04-07 19:42:00,
2013-04-07 20:48:00,35.1,33.8,30.01,NE,45,6.0,11.0,95,0.00,,,0.00,meteohub,2013-04-07 19:48:00,
2013-04-07 20:53:00,35.1,33.8,30.01,ENE,67,8.0,11.0,95,0.00,,,0.00,meteohub,2013-04-07 19:53:00,
2013-04-07 20:58:00,34.9,33.6,30.01,ENE,67,6.0,11.0,95,0.00,,,0.00,meteohub,2013-04-07 19:58:00,
2013-04-07 21:03:00,34.9,33.6,30.01,East,90,6.0,11.0,95,0.00,,,0.00,meteohub,2013-04-07 20:03:00,
2013-04-07 21:08:00,34.9,33.6,30.01,East,90,8.0,11.0,95,0.00,,,0.00,meteohub,2013-04-07 20:08:00,
2013-04-07 21:14:00,35.1,33.8,30.01,East,90,6.0,10.0,95,0.00,,,0.00,meteohub,2013-04-07 20:14:00,
2013-04-07 21:19:00,35.1,33.8,30.01,East,90,6.0,10.0,95,0.00,,,0.00,meteohub,2013-04-07 20:19:00,
2013-04-07 21:24:00,35.1,34.0,30.01,NNE,22,6.0,10.0,96,0.00,,,0.00,meteohub,2013-04-07 20:24:00,
2013-04-07 21:29:00,35.1,34.0,30.01,ENE,67,6.0,10.0,96,0.00,,,0.00,meteohub,2013-04-07 20:29:00,
2013-04-07 21:34:00,35.1,34.0,30.01,ENE,67,6.0,10.0,96,0.00,,,0.00,meteohub,2013-04-07 20:34:00,
2013-04-07 21:40:00,35.1,34.0,30.01,East,90,6.0,11.0,96,0.00,,,0.00,meteohub,2013-04-07 20:40:00,
2013-04-07 21:45:00,35.1,34.0,30.01,East,90,6.0,11.0,96,0.00,,,0.00,meteohub,2013-04-07 20:45:00,
2013-04-07 21:50:00,35.1,34.0,30.01,ESE,112,6.0,11.0,96,0.00,,,0.00,meteohub,2013-04-07 20:50:00,
2013-04-07 21:56:00,35.1,34.0,30.01,ENE,67,6.0,11.0,96,0.00,,,0.00,meteohub,2013-04-07 20:56:00,
2013-04-07 22:01:00,35.1,34.0,30.01,East,90,4.0,10.0,96,0.00,,,0.00,meteohub,2013-04-07 21:01:00,
2013-04-07 22:06:00,35.2,34.2,30.01,SE,135,9.0,10.0,96,0.00,,,0.00,meteohub,2013-04-07 21:06:00,
2013-04-07 22:11:00,35.2,34.2,30.01,East,90,4.0,12.0,96,0.00,,,0.00,meteohub,2013-04-07 21:11:00,
2013-04-07 22:17:00,35.2,34.2,30.01,East,90,9.0,12.0,96,0.00,,,0.00,meteohub,2013-04-07 21:17:00,
2013-04-07 22:22:00,35.2,34.2,30.01,East,90,10.0,12.0,96,0.00,,,0.00,meteohub,2013-04-07 21:22:00,
2013-04-07 22:27:00,35.2,34.2,30.01,East,90,11.0,11.0,96,0.00,,,0.00,meteohub,2013-04-07 21:27:00,
2013-04-07 22:33:00,35.2,34.2,30.01,ENE,67,6.0,11.0,96,0.00,,,0.00,meteohub,2013-04-07 21:33:00,
2013-04-07 22:38:00,35.2,34.2,30.01,SE,135,6.0,11.0,96,0.00,,,0.00,meteohub,2013-04-07 21:38:00,
2013-04-07 22:43:00,35.2,34.2,30.01,East,90,9.0,11.0,96,0.00,,,0.00,meteohub,2013-04-07 21:43:00,
2013-04-07 22:48:00,35.2,34.2,30.01,East,90,9.0,11.0,96,0.00,,,0.00,meteohub,2013-04-07 21:48:00,
2013-04-07 22:54:00,35.4,34.3,30.01,East,90,7.0,11.0,96,0.00,,,0.00,meteohub,2013-04-07 21:54:00,
2013-04-07 22:59:00,35.4,34.2,30.01,East,90,8.0,11.0,95,0.00,,,0.00,meteohub,2013-04-07 21:59:00,
2013-04-07 23:04:00,35.4,34.2,29.98,East,90,4.0,13.0,95,0.00,,,0.00,meteohub,2013-04-07 22:04:00,
2013-04-07 23:09:00,35.4,34.2,29.98,East,90,5.0,13.0,95,0.00,,,0.00,meteohub,2013-04-07 22:09:00,
2013-04-07 23:14:00,35.4,34.2,29.98,East,90,6.0,13.0,95,0.00,,,0.00,meteohub,2013-04-07 22:14:00,
2013-04-07 23:19:00,35.4,34.2,29.98,ENE,67,8.0,10.0,95,0.00,,,0.00,meteohub,2013-04-07 22:19:00,
2013-04-07 23:24:00,35.6,34.0,29.98,ENE,67,6.0,10.0,94,0.00,,,0.00,meteohub,2013-04-07 22:24:00,
2013-04-07 23:29:00,35.6,34.0,29.98,NE,45,4.0,10.0,94,0.00,,,0.00,meteohub,2013-04-07 22:29:00,
2013-04-07 23:35:00,35.4,34.2,29.98,ENE,67,6.0,10.0,95,0.00,,,0.00,meteohub,2013-04-07 22:35:00,
2013-04-07 23:40:00,35.4,34.2,29.98,NNE,22,5.0,8.0,95,0.00,,,0.00,meteohub,2013-04-07 22:40:00,
2013-04-07 23:45:00,35.4,34.2,29.98,NE,45,6.0,8.0,95,0.00,,,0.00,meteohub,2013-04-07 22:45:00,
2013-04-07 23:52:00,35.4,34.2,29.98,East,90,5.0,9.0,95,0.00,,,0.00,meteohub,2013-04-07 22:52:00,
2013-04-07 23:57:00,35.2,34.0,29.98,ENE,67,6.0,9.0,95,0.00,,,0.00,meteohub,2013-04-07 22:57:00,